Time;durP1;ratioP1;P1;durP2;ratioP2;P2;SDS_P1;SDS_P2;PMS_P1;PMS_P2;Temp;Humidity;BMP_temperature;BMP_pressure;BME280_temperature;BME280_humidity;BME280_pressure;Samples;Min_cycle;Max_cycle;Signal;HPM_P1;HPM_P2
2022/09/10 13:38:37;;;;;;;4.13;3.17;;;;;;;19.23;39.01;100962.14;1746223;82;21480;-56
2022/09/10 13:41:26;;;;;;;4.60;3.07;;;;;;;19.37;38.57;100959.63;1746548;82;21755;-55
2022/09/10 13:44:10;;;;;;;5.83;3.30;;;;;;;19.47;38.29;100966.48;1746891;82;21004;-67
2022/09/10 13:46:51;;;;;;;4.63;2.73;;;;;;;19.44;38.44;100961.16;1747126;82;21871;-55
2022/09/10 13:49:35;;;;;;;5.87;2.85;;;;;;;19.44;38.37;100955.06;1746781;82;21575;-55
2022/09/10 13:52:04;;;;;;;4.57;2.80;;;;;;;19.37;38.79;100958.31;1716299;82;21530;-55
2022/09/10 13:54:38;;;;;;;5.23;2.83;;;;;;;19.29;38.88;100951.50;1746748;82;21032;-58
2022/09/10 13:57:16;;;;;;;4.30;2.40;;;;;;;19.24;38.38;100947.38;1746573;82;21055;-55
2022/09/10 13:59:46;;;;;;;3.00;1.97;;;;;;;19.23;38.37;100951.05;1746435;82;20989;-55
2022/09/10 14:02:14;;;;;;;4.87;2.43;;;;;;;19.30;37.58;100948.33;1746761;81;21126;-55
2022/09/10 14:04:42;;;;;;;6.70;1.90;;;;;;;19.38;37.52;100948.02;1746212;82;21052;-54
2022/09/10 14:07:21;;;;;;;4.00;1.93;;;;;;;19.48;37.85;100941.69;1746911;82;21363;-55
2022/09/10 14:09:55;;;;;;;6.37;1.63;;;;;;;19.63;37.46;100955.33;1747109;82;20960;-56
2022/09/10 14:12:26;;;;;;;5.77;2.53;;;;;;;19.74;37.06;100945.02;1745890;82;21754;-55
2022/09/10 14:14:57;;;;;;;7.47;4.23;;;;;;;19.78;36.86;100947.49;1746833;82;21032;-55
2022/09/10 14:17:31;;;;;;;4.77;2.60;;;;;;;19.74;36.79;100944.49;1746571;82;21114;-62
2022/09/10 14:20:00;;;;;;;5.60;1.77;;;;;;;19.67;36.83;100942.46;1746583;82;21068;-66
2022/09/10 14:22:27;;;;;;;5.53;3.50;;;;;;;19.55;36.77;100944.24;1746546;82;21475;-57
2022/09/10 14:24:59;;;;;;;3.20;1.80;;;;;;;19.42;36.82;100935.44;1746719;82;21156;-55
2022/09/10 14:27:33;;;;;;;;;;;;;;;19.27;37.14;100946.13;1749038;82;21567;-65
2022/09/10 14:30:24;;;;;;;4.12;2.22;;;;;;;19.10;37.68;100944.11;1745592;81;20460;-56
2022/09/10 14:32:51;;;;;;;2.90;1.90;;;;;;;18.94;38.18;100944.20;1747001;82;21008;-55
2022/09/10 14:35:44;;;;;;;3.50;1.50;;;;;;;18.85;37.82;100938.11;1746308;82;21498;-57
2022/09/10 14:38:33;;;;;;;3.70;1.97;;;;;;;18.77;37.98;100937.89;1746573;82;21202;-55
2022/09/10 14:41:02;;;;;;;3.13;1.70;;;;;;;18.62;38.54;100933.45;1745372;82;20957;-56
2022/09/10 14:43:33;;;;;;;4.47;1.40;;;;;;;18.53;39.08;100923.70;1747283;82;21699;-55
2022/09/10 14:46:01;;;;;;;2.85;1.50;;;;;;;18.49;39.10;100930.45;1747549;82;21008;-55
2022/09/10 14:48:43;;;;;;;2.57;1.27;;;;;;;18.43;39.08;100926.83;1747250;82;21012;-55
2022/09/10 14:51:13;;;;;;;;;;;;;;;18.36;38.69;100930.05;1725244;82;21324;-54
2022/09/10 14:53:41;;;;;;;4.40;1.67;;;;;;;18.24;38.89;100930.47;1747705;81;20122;-56
2022/09/10 14:56:32;;;;;;;4.73;1.83;;;;;;;18.14;39.42;100923.03;1747668;82;20932;-55
2022/09/10 14:59:06;;;;;;;3.30;1.85;;;;;;;18.05;40.05;100921.70;1747888;82;21812;-57
2022/09/10 15:01:34;;;;;;;3.00;1.50;;;;;;;17.92;39.73;100922.63;1747776;81;20965;-55
2022/09/10 15:04:02;;;;;;;5.23;2.27;;;;;;;17.83;40.27;100925.73;1747401;82;21164;-55
2022/09/10 15:06:30;;;;;;;6.70;3.20;;;;;;;17.71;40.19;100934.30;1746771;82;20957;-57
2022/09/10 15:08:57;;;;;;;23.17;16.47;;;;;;;17.61;40.25;100923.92;1747474;82;21444;-56
2022/09/10 15:11:25;;;;;;;27.97;20.07;;;;;;;17.50;40.83;100923.61;1747559;82;21033;-55
2022/09/10 15:13:54;;;;;;;61.73;37.60;;;;;;;17.39;41.30;100919.01;1747414;82;20980;-55
2022/09/10 15:16:22;;;;;;;16.37;9.80;;;;;;;17.27;41.50;100923.30;1746981;82;21253;-67
2022/09/10 15:18:49;;;;;;;13.07;9.00;;;;;;;17.15;41.35;100923.16;1747054;82;21603;-55
2022/09/10 15:21:16;;;;;;;25.60;17.77;;;;;;;17.04;41.57;100926.45;1747210;82;21772;-55
2022/09/10 15:23:45;;;;;;;25.50;19.57;;;;;;;16.91;41.62;100930.47;1747022;82;21071;-55
2022/09/10 15:26:13;;;;;;;7.73;4.90;;;;;;;16.78;41.66;100921.61;1746933;82;21025;-58
2022/09/10 15:28:40;;;;;;;5.67;3.20;;;;;;;16.67;41.55;100921.41;1746558;82;21168;-65
2022/09/10 15:31:07;;;;;;;3.40;1.60;;;;;;;16.58;41.69;100922.63;1746825;82;21017;-55
2022/09/10 15:33:34;;;;;;;3.40;2.00;;;;;;;16.43;42.19;100916.28;1746840;82;21102;-55
2022/09/10 15:36:03;;;;;;;4.33;2.77;;;;;;;16.29;42.89;100922.09;1746904;81;20973;-54
2022/09/10 15:38:30;;;;;;;5.03;3.00;;;;;;;16.15;43.97;100915.21;1744434;82;21569;-55
2022/09/10 15:41:11;;;;;;;8.47;3.30;;;;;;;15.99;44.96;100918.55;1743999;82;21157;-56
2022/09/10 15:43:41;;;;;;;6.40;3.45;;;;;;;15.84;45.82;100917.95;1744245;82;22099;-55
2022/09/10 15:46:09;;;;;;;6.90;3.33;;;;;;;15.69;46.74;100919.95;1743638;82;21052;-63
2022/09/10 15:48:37;;;;;;;6.37;3.40;;;;;;;15.55;47.56;100916.45;1743841;82;21008;-56
2022/09/10 15:51:08;;;;;;;6.67;4.13;;;;;;;15.39;48.61;100911.57;1743727;82;21041;-55
2022/09/10 15:53:35;;;;;;;6.92;3.58;;;;;;;15.28;49.42;100907.19;1744551;82;21233;-55
2022/09/10 15:56:06;;;;;;;6.70;4.13;;;;;;;15.12;50.35;100912.00;1743570;82;20985;-68
2022/09/10 15:58:34;;;;;;;8.28;4.20;;;;;;;15.01;51.14;100901.55;1744150;82;21323;-58
2022/09/10 16:01:07;;;;;;;13.00;5.73;;;;;;;14.88;52.08;100906.73;1743408;82;21482;-55
2022/09/10 16:03:35;;;;;;;8.10;4.50;;;;;;;14.77;53.05;100908.92;1744128;82;20992;-55
2022/09/10 16:06:04;;;;;;;7.77;5.13;;;;;;;14.67;53.93;100908.97;1743584;82;21711;-57
2022/09/10 16:08:33;;;;;;;8.33;4.70;;;;;;;14.54;54.75;100911.80;1743620;82;21511;-57
2022/09/10 16:11:13;;;;;;;8.60;4.97;;;;;;;14.64;55.25;100914.09;1741374;81;21991;-55
2022/09/10 16:13:42;;;;;;;7.50;4.57;;;;;;;14.47;56.37;100914.05;1740771;82;20975;-60
2022/09/10 16:16:11;;;;;;;10.30;5.60;;;;;;;14.33;58.36;100913.97;1710602;83;21495;-56
2022/09/10 16:18:40;;;;;;;8.87;4.47;;;;;;;14.24;60.34;100920.84;1710096;82;21167;-56
2022/09/10 16:21:17;;;;;;;8.77;5.00;;;;;;;14.17;61.76;100916.89;1710851;82;21471;-56
2022/09/10 16:23:45;;;;;;;8.53;4.23;;;;;;;14.07;63.60;100923.76;1710459;83;21008;-56
2022/09/10 16:26:16;;;;;;;8.77;4.50;;;;;;;13.98;65.81;100924.06;1710521;83;21052;-59
2022/09/10 16:28:56;;;;;;;8.98;4.55;;;;;;;13.93;67.91;100930.38;1710817;82;21102;-55
2022/09/10 16:31:33;;;;;;;8.83;4.83;;;;;;;13.85;69.72;100924.77;1710065;83;21255;-56
2022/09/10 16:34:02;;;;;;;11.17;5.50;;;;;;;13.77;71.73;100924.91;1723117;82;21003;-68
2022/09/10 16:36:31;;;;;;;11.43;5.57;;;;;;;13.70;73.83;100920.09;1749024;81;21030;-56
2022/09/10 16:39:03;;;;;;;9.43;5.40;;;;;;;13.68;75.77;100922.11;1748497;81;21065;-58
2022/09/10 16:41:31;;;;;;;10.73;4.90;;;;;;;13.61;77.16;100926.77;1749246;81;21654;-56
2022/09/10 16:43:59;;;;;;;8.33;5.40;;;;;;;13.57;79.77;100923.41;1749335;81;21619;-56
2022/09/10 16:46:26;;;;;;;8.83;5.00;;;;;;;13.47;83.57;100921.58;1748961;81;21808;-56
2022/09/10 16:48:54;;;;;;;9.97;5.87;;;;;;;13.47;83.57;100921.58;1748802;81;21073;-67
2022/09/10 16:51:23;;;;;;;8.57;4.87;;;;;;;13.43;85.58;100924.26;1749323;81;22151;-55
2022/09/10 16:53:56;;;;;;;9.67;5.70;;;;;;;13.36;87.91;100915.02;1749309;81;21634;-55
2022/09/10 16:56:24;;;;;;;10.17;5.97;;;;;;;13.31;90.28;100919.50;1748714;81;22228;-57
2022/09/10 16:58:51;;;;;;;8.93;5.23;;;;;;;13.26;91.82;100912.70;1748953;81;22597;-65
2022/09/10 17:01:19;;;;;;;10.33;5.60;;;;;;;13.20;92.83;100914.71;1749049;81;22157;-56
2022/09/10 17:03:52;;;;;;;8.50;4.77;;;;;;;13.16;93.76;100912.15;1749334;81;22235;-56
2022/09/10 17:06:20;;;;;;;9.37;5.20;;;;;;;13.15;94.29;100926.24;1747480;81;22254;-68
2022/09/10 17:08:47;;;;;;;7.47;4.10;;;;;;;13.12;94.65;100925.30;1748604;80;21759;-58
2022/09/10 17:11:15;;;;;;;8.07;4.00;;;;;;;13.09;95.11;100924.34;1746061;81;21064;-58
2022/09/10 17:13:45;;;;;;;7.43;4.43;;;;;;;13.03;96.13;100923.75;1746429;82;21610;-56
2022/09/10 17:16:29;;;;;;;7.83;4.20;;;;;;;12.99;96.27;100929.84;1746250;82;21586;-67
2022/09/10 17:19:03;;;;;;;7.70;4.17;;;;;;;12.97;96.62;100931.85;1746301;82;22193;-56
2022/09/10 17:21:31;;;;;;;6.97;3.53;;;;;;;12.96;96.83;100933.35;1746545;82;21728;-57
2022/09/10 17:24:00;;;;;;;6.93;4.07;;;;;;;12.91;96.54;100932.06;1746632;82;21665;-67
2022/09/10 17:26:28;;;;;;;5.53;3.10;;;;;;;12.86;96.70;100934.42;1746135;82;22325;-57
2022/09/10 17:28:58;;;;;;;9.90;4.10;;;;;;;12.82;97.08;100934.47;1746791;82;22231;-58
2022/09/10 17:31:26;;;;;;;8.47;3.73;;;;;;;12.70;96.86;100936.42;1746165;80;22112;-57
2022/09/10 17:33:54;;;;;;;6.83;3.63;;;;;;;12.70;96.86;100936.42;1747199;82;21499;-59
2022/09/10 17:36:24;;;;;;;6.53;3.63;;;;;;;12.65;97.41;100940.86;1746340;82;21645;-56
2022/09/10 17:38:52;;;;;;;7.43;3.87;;;;;;;12.59;97.83;100937.67;1747423;82;21715;-56
2022/09/10 17:41:20;;;;;;;8.20;3.87;;;;;;;12.54;98.06;100934.77;1747290;82;21690;-56
2022/09/10 17:43:48;;;;;;;8.67;4.37;;;;;;;12.44;99.17;100930.31;1747053;82;21960;-57
2022/09/10 17:46:17;;;;;;;8.13;4.07;;;;;;;12.44;99.17;100930.31;1746302;82;22159;-57
2022/09/10 17:48:44;;;;;;;6.60;3.80;;;;;;;12.40;99.37;100924.13;1747128;82;22752;-56
2022/09/10 17:51:13;;;;;;;8.73;3.90;;;;;;;12.36;99.13;100918.94;1747022;82;21641;-57
2022/09/10 17:53:40;;;;;;;7.40;4.00;;;;;;;12.36;98.83;100920.25;1747477;82;21693;-56
2022/09/10 17:56:10;;;;;;;8.27;4.00;;;;;;;12.36;98.83;100920.25;1746834;82;21572;-66
2022/09/10 17:58:38;;;;;;;7.57;3.90;;;;;;;12.36;98.98;100916.83;1747225;82;22215;-56
2022/09/10 18:01:11;;;;;;;7.30;3.80;;;;;;;12.34;98.60;100911.75;1747182;82;21207;-56
2022/09/10 18:03:39;;;;;;;6.47;3.83;;;;;;;12.33;98.75;100906.72;1747408;82;21532;-56
2022/09/10 18:06:08;;;;;;;8.30;4.30;;;;;;;12.28;99.13;100899.91;1747077;82;21380;-68
2022/09/10 18:08:37;;;;;;;7.70;3.63;;;;;;;12.25;99.16;100899.77;1746300;82;21920;-56
2022/09/10 18:11:10;;;;;;;9.63;4.03;;;;;;;12.23;98.84;100892.58;1750805;81;21440;-56
2022/09/10 18:13:38;;;;;;;7.13;3.47;;;;;;;12.28;99.00;100897.30;1752369;81;21495;-56
2022/09/10 18:16:11;;;;;;;6.77;3.63;;;;;;;12.28;99.19;100896.80;1752267;80;21565;-63
2022/09/10 18:18:38;;;;;;;6.87;4.10;;;;;;;12.28;99.19;100896.80;1751669;81;21546;-56
2022/09/10 18:21:26;;;;;;;7.03;4.00;;;;;;;12.31;98.32;100897.76;1752395;81;21339;-56
2022/09/10 18:24:02;;;;;;;8.10;4.30;;;;;;;12.30;97.41;100896.11;1751827;81;21975;-59
2022/09/10 18:26:32;;;;;;;6.03;3.50;;;;;;;12.36;96.90;100894.60;1752460;81;21550;-57
2022/09/10 18:29:05;;;;;;;7.33;3.07;;;;;;;12.39;95.07;100890.33;1752582;81;21642;-56
2022/09/10 18:31:35;;;;;;;6.73;3.27;;;;;;;12.45;93.99;100894.02;1751824;80;21476;-67
2022/09/10 18:34:03;;;;;;;6.40;3.20;;;;;;;12.45;93.99;100894.02;1752178;81;21799;-56
2022/09/10 18:36:30;;;;;;;6.30;3.17;;;;;;;12.42;93.04;100887.33;1752762;81;21495;-56
2022/09/10 18:39:03;;;;;;;7.43;2.83;;;;;;;12.40;91.79;100883.59;1752624;81;21516;-56
2022/09/10 18:41:31;;;;;;;5.47;2.77;;;;;;;12.42;91.16;100884.72;1751736;81;21681;-67
2022/09/10 18:44:02;;;;;;;8.00;2.53;;;;;;;12.38;90.21;100880.84;1752137;81;21745;-56
2022/09/10 18:46:31;;;;;;;5.12;2.62;;;;;;;12.38;90.21;100880.84;1752673;81;21565;-56
2022/09/10 18:48:59;;;;;;;7.87;3.20;;;;;;;12.34;90.46;100873.84;1752482;81;21907;-56
2022/09/10 18:51:28;;;;;;;5.43;2.50;;;;;;;12.30;89.38;100876.50;1751687;81;21743;-60
2022/09/10 18:53:57;;;;;;;5.67;2.63;;;;;;;12.23;90.92;100872.17;1751994;81;22485;-56
2022/09/10 18:56:28;;;;;;;5.83;2.43;;;;;;;12.23;90.92;100872.17;1752155;81;21562;-56
2022/09/10 18:59:03;;;;;;;5.67;2.40;;;;;;;12.15;90.98;100871.25;1752670;81;22205;-56
2022/09/10 19:01:32;;;;;;;8.17;2.33;;;;;;;12.12;91.70;100872.11;1751569;81;21752;-57
2022/09/10 19:03:58;;;;;;;4.50;2.37;;;;;;;12.06;91.89;100865.80;1752906;81;22243;-55
2022/09/10 19:06:28;;;;;;;5.40;2.50;;;;;;;12.01;92.34;100863.39;1752776;81;21427;-55
2022/09/10 19:08:58;;;;;;;9.17;2.73;;;;;;;11.98;93.06;100861.16;1753042;81;21404;-55
2022/09/10 19:11:34;;;;;;;7.83;3.23;;;;;;;11.98;93.06;100861.16;1751584;81;21439;-60
2022/09/10 19:14:05;;;;;;;5.27;2.10;;;;;;;11.96;93.26;100859.20;1753285;81;21870;-55
2022/09/10 19:16:34;;;;;;;8.33;2.62;;;;;;;11.93;92.71;100857.27;1753054;81;21369;-55
2022/09/10 19:19:04;;;;;;;4.80;2.40;;;;;;;11.92;92.08;100858.24;1752658;81;20998;-58
2022/09/10 19:21:34;;;;;;;6.23;2.10;;;;;;;11.95;92.48;100853.16;1752972;81;21714;-55
2022/09/10 19:24:02;;;;;;;5.43;2.30;;;;;;;11.92;92.17;100852.20;1752889;81;21890;-55
2022/09/10 19:26:31;;;;;;;4.87;2.13;;;;;;;11.89;93.45;100850.78;1752556;81;21379;-55
2022/09/10 19:29:00;;;;;;;5.10;2.53;;;;;;;11.89;93.45;100850.78;1751805;81;21336;-55
2022/09/10 19:31:29;;;;;;;5.80;2.70;;;;;;;11.90;94.46;100844.56;1751308;81;22254;-56
2022/09/10 19:34:02;;;;;;;7.00;2.50;;;;;;;11.84;95.79;100837.42;1752285;81;21917;-55
2022/09/10 19:36:30;;;;;;;5.30;2.30;;;;;;;11.78;97.43;100830.28;1752238;80;21481;-61
2022/09/10 19:38:58;;;;;;;3.97;1.80;;;;;;;11.75;97.83;100835.84;1752187;81;22340;-55
2022/09/10 19:41:25;;;;;;;4.23;2.27;;;;;;;11.74;99.35;100834.70;1751594;81;21867;-62
2022/09/10 19:43:53;;;;;;;4.60;1.87;;;;;;;11.68;100.00;100833.62;1752199;81;21902;-55
2022/09/10 19:46:22;;;;;;;4.43;2.37;;;;;;;11.66;100.00;100836.39;1752243;81;21249;-64
2022/09/10 19:48:51;;;;;;;8.40;2.43;;;;;;;11.55;100.00;100843.83;1751644;81;21273;-55
2022/09/10 19:51:19;;;;;;;5.17;2.33;;;;;;;11.49;100.00;100841.44;1752235;81;21447;-64
2022/09/10 19:53:47;;;;;;;5.53;2.67;;;;;;;11.49;100.00;100841.44;1751900;81;21337;-56
2022/09/10 19:56:18;;;;;;;7.43;2.50;;;;;;;11.47;100.00;100840.78;1752572;81;21604;-55
2022/09/10 19:58:45;;;;;;;4.80;2.33;;;;;;;11.43;100.00;100836.90;1752300;81;21768;-55
2022/09/10 20:01:19;;;;;;;3.90;2.00;;;;;;;11.37;100.00;100836.30;1751787;81;21599;-65
2022/09/10 20:03:47;;;;;;;4.73;2.47;;;;;;;11.32;100.00;100834.69;1751664;80;21428;-55
2022/09/10 20:06:17;;;;;;;6.97;2.20;;;;;;;11.26;100.00;100834.09;1752147;80;21273;-57
2022/09/10 20:08:44;;;;;;;6.17;2.03;;;;;;;11.17;100.00;100838.53;1751910;81;21683;-55
2022/09/10 20:11:17;;;;;;;6.33;2.30;;;;;;;11.12;100.00;100839.05;1752092;81;21228;-56
2022/09/10 20:13:44;;;;;;;5.00;1.90;;;;;;;11.11;100.00;100841.84;1752353;80;21818;-55
2022/09/10 20:16:12;;;;;;;4.93;2.37;;;;;;;11.04;100.00;100843.02;1751894;81;21252;-56
2022/09/10 20:18:40;;;;;;;4.37;2.07;;;;;;;11.01;100.00;100851.68;1751610;81;21762;-55
2022/09/10 20:21:17;;;;;;;3.50;1.70;;;;;;;10.96;100.00;100848.28;1752061;81;21383;-66
2022/09/10 20:23:46;;;;;;;6.67;2.70;;;;;;;10.92;100.00;100846.50;1752052;80;21210;-55
2022/09/10 20:26:21;;;;;;;5.53;2.23;;;;;;;10.88;100.00;100848.33;1751592;80;21372;-59
2022/09/10 20:28:57;;;;;;;5.17;2.23;;;;;;;10.86;100.00;100847.17;1752134;80;21221;-55
2022/09/10 20:31:26;;;;;;;5.80;2.30;;;;;;;10.84;100.00;100841.33;1751526;81;21728;-56
2022/09/10 20:34:02;;;;;;;5.03;2.27;;;;;;;10.80;100.00;100841.35;1752107;81;21375;-56
2022/09/10 20:36:30;;;;;;;6.63;2.47;;;;;;;10.81;100.00;100841.67;1752701;81;21343;-55
2022/09/10 20:38:57;;;;;;;7.37;2.83;;;;;;;10.83;100.00;100839.69;1752236;81;21759;-64
2022/09/10 20:41:28;;;;;;;5.77;2.50;;;;;;;10.84;100.00;100830.09;1751951;81;22355;-57
2022/09/10 20:43:53;;;;;;;4.90;3.00;;;;;;;10.85;100.00;100833.83;1750894;81;21290;-60
2022/09/10 20:46:21;;;;;;;6.27;2.50;;;;;;;10.84;100.00;100826.98;1752151;81;21363;-55
2022/09/10 20:48:49;;;;;;;7.00;2.60;;;;;;;10.84;100.00;100824.88;1751959;81;21164;-61
2022/09/10 20:51:17;;;;;;;6.23;2.63;;;;;;;10.82;100.00;100827.64;1751979;81;21210;-55
2022/09/10 20:53:44;;;;;;;5.97;2.50;;;;;;;10.82;100.00;100826.33;1751956;80;21251;-57
2022/09/10 20:56:16;;;;;;;5.50;2.73;;;;;;;10.80;100.00;100817.08;1752327;81;21857;-56
2022/09/10 20:58:45;;;;;;;5.67;2.60;;;;;;;10.79;100.00;100824.55;1751604;80;21205;-63
2022/09/10 21:04:20;;;;;;;7.97;3.37;;;;;;;10.79;100.00;100822.75;1660034;86;21254;-67
2022/09/10 21:06:48;;;;;;;9.40;3.20;;;;;;;10.78;100.00;100822.44;1659806;86;21151;-67
2022/09/10 21:09:15;;;;;;;7.03;3.30;;;;;;;10.77;100.00;100810.39;1660085;86;21870;-57
2022/09/10 21:11:43;;;;;;;8.13;3.43;;;;;;;10.74;100.00;100805.52;1660415;84;21650;-55
2022/09/10 21:14:11;;;;;;;10.43;3.43;;;;;;;10.68;100.00;100805.72;1660447;86;21769;-57
2022/09/10 21:16:40;;;;;;;8.20;3.43;;;;;;;10.70;100.00;100803.73;1659661;86;21710;-57
2022/09/10 21:19:13;;;;;;;9.43;3.63;;;;;;;10.68;100.00;100800.97;1660189;86;22255;-54
2022/09/10 21:21:40;;;;;;;7.80;4.00;;;;;;;10.66;100.00;100805.56;1660844;86;21299;-58
2022/09/10 21:24:11;;;;;;;8.20;3.77;;;;;;;10.62;100.00;100805.08;1660809;86;21166;-56
2022/09/10 21:26:40;;;;;;;7.85;3.75;;;;;;;10.60;100.00;100808.34;1660064;86;21205;-64
2022/09/10 21:29:12;;;;;;;8.70;4.17;;;;;;;10.61;100.00;100806.57;1661142;86;21036;-55
2022/09/10 21:31:39;;;;;;;8.80;4.10;;;;;;;10.59;100.00;100805.91;1661288;86;21276;-56
2022/09/10 21:34:06;;;;;;;7.30;3.60;;;;;;;10.56;100.00;100812.27;1660791;86;21025;-56
2022/09/10 21:36:35;;;;;;;9.53;4.00;;;;;;;10.52;100.00;100808.87;1659761;86;21231;-62
2022/09/10 21:39:05;;;;;;;11.60;4.00;;;;;;;10.45;100.00;100807.42;1660755;86;21753;-56
2022/09/10 21:41:35;;;;;;;11.60;4.47;;;;;;;10.37;100.00;100803.05;1660574;86;21216;-55
2022/09/10 21:44:11;;;;;;;7.73;3.87;;;;;;;10.33;100.00;100806.97;1660826;86;22148;-59
2022/09/10 21:46:38;;;;;;;6.87;3.00;;;;;;;10.30;100.00;100802.09;1660233;86;21541;-56
2022/09/10 21:49:05;;;;;;;10.20;3.57;;;;;;;10.27;100.00;100805.06;1660185;86;22230;-56
2022/09/10 21:51:33;;;;;;;9.57;3.83;;;;;;;10.23;100.00;100810.25;1660007;86;21354;-56
2022/09/10 21:54:01;;;;;;;8.33;4.10;;;;;;;10.20;100.00;100814.48;1659929;86;21207;-57
2022/09/10 21:56:28;;;;;;;10.07;4.13;;;;;;;10.16;100.00;100809.28;1659878;86;21270;-57
2022/09/10 21:58:55;;;;;;;7.83;3.60;;;;;;;10.11;100.00;100812.86;1659876;86;21151;-56
2022/09/10 22:01:25;;;;;;;8.53;3.33;;;;;;;10.05;100.00;100815.66;1659592;86;22020;-55
2022/09/10 22:03:58;;;;;;;9.07;3.70;;;;;;;10.03;100.00;100803.77;1676560;84;21238;-59
2022/09/10 22:06:32;;;;;;;7.90;4.07;;;;;;;9.97;100.00;100813.06;1685038;84;21399;-67
2022/09/10 22:09:02;;;;;;;9.03;3.90;;;;;;;9.96;100.00;100812.26;1685167;85;21740;-56
2022/09/10 22:11:36;;;;;;;10.53;4.58;;;;;;;9.94;100.00;100799.87;1685221;84;21294;-57
2022/09/10 22:14:06;;;;;;;7.80;3.67;;;;;;;9.93;100.00;100798.27;1684963;84;21503;-56
2022/09/10 22:16:34;;;;;;;10.17;4.17;;;;;;;9.94;100.00;100802.97;1684409;84;21732;-57
2022/09/10 22:19:05;;;;;;;7.80;4.03;;;;;;;9.93;100.00;100794.36;1685316;85;21653;-56
2022/09/10 22:21:32;;;;;;;11.57;4.43;;;;;;;9.91;100.00;100796.79;1685320;85;22823;-67
2022/09/10 22:23:59;;;;;;;16.77;4.60;;;;;;;9.87;100.00;100792.40;1685292;84;21136;-67
2022/09/10 22:26:27;;;;;;;11.53;4.13;;;;;;;9.80;100.00;100785.41;1684974;84;21550;-56
2022/09/10 22:28:56;;;;;;;12.55;4.20;;;;;;;9.77;100.00;100783.94;1685236;84;21341;-56
2022/09/10 22:31:26;;;;;;;8.40;3.80;;;;;;;9.69;100.00;100773.05;1685413;84;21074;-56
2022/09/10 22:33:56;;;;;;;10.50;4.57;;;;;;;9.62;100.00;100769.50;1684731;85;21250;-65
2022/09/10 22:36:27;;;;;;;9.65;4.30;;;;;;;9.58;100.00;100771.27;1684712;84;21308;-57
2022/09/10 22:38:58;;;;;;;12.30;5.20;;;;;;;9.54;100.00;100762.16;1685170;84;21026;-55
2022/09/10 22:41:26;;;;;;;8.08;3.67;;;;;;;9.50;100.00;100763.78;1685151;84;21050;-68
2022/09/10 22:43:53;;;;;;;12.30;4.37;;;;;;;9.48;100.00;100762.34;1685204;85;21379;-67
2022/09/10 22:46:22;;;;;;;10.20;3.83;;;;;;;9.48;100.00;100757.95;1685148;84;21741;-56
2022/09/10 22:48:49;;;;;;;7.50;3.47;;;;;;;9.49;100.00;100747.05;1685252;84;21177;-57
2022/09/10 22:51:24;;;;;;;12.90;3.53;;;;;;;9.52;100.00;100747.22;1685456;85;21802;-56
2022/09/10 22:53:52;;;;;;;8.67;3.73;;;;;;;9.49;100.00;100737.94;1685453;84;21782;-56
2022/09/10 22:56:21;;;;;;;8.67;3.57;;;;;;;9.48;100.00;100751.44;1685351;84;21183;-56
2022/09/10 22:58:52;;;;;;;9.67;4.43;;;;;;;9.47;100.00;100744.63;1685354;85;22306;-56
2022/09/10 23:01:21;;;;;;;8.50;3.93;;;;;;;9.49;100.00;100748.35;1683380;84;21082;-67
2022/09/10 23:03:48;;;;;;;12.03;4.40;;;;;;;9.49;100.00;100746.55;1690580;84;21787;-55
2022/09/10 23:06:20;;;;;;;11.50;4.33;;;;;;;9.50;100.00;100746.06;1694501;84;20960;-56
2022/09/10 23:08:50;;;;;;;13.53;4.70;;;;;;;9.51;100.00;100741.20;1695417;84;21265;-56
2022/09/10 23:11:20;;;;;;;9.63;4.40;;;;;;;9.48;100.00;100741.03;1694866;84;21816;-61
2022/09/10 23:13:53;;;;;;;12.10;4.25;;;;;;;9.45;100.00;100746.56;1694880;84;28037;-64
2022/09/10 23:16:24;;;;;;;14.03;4.40;;;;;;;9.41;100.00;100747.87;1695314;84;21124;-56
2022/09/10 23:18:55;;;;;;;10.82;4.10;;;;;;;9.38;100.00;100752.58;1695040;84;21381;-67
2022/09/10 23:21:23;;;;;;;9.30;3.75;;;;;;;9.31;100.00;100745.91;1695260;84;21070;-56
2022/09/10 23:23:51;;;;;;;8.03;3.37;;;;;;;9.34;100.00;100739.08;1694833;84;21404;-57
2022/09/10 23:26:20;;;;;;;9.30;4.00;;;;;;;9.33;100.00;100737.47;1695383;84;22192;-58
2022/09/10 23:28:48;;;;;;;9.80;3.77;;;;;;;9.37;100.00;100737.95;1695104;84;21923;-58
2022/09/10 23:31:19;;;;;;;9.73;3.97;;;;;;;9.41;100.00;100740.55;1694742;84;21527;-56
2022/09/10 23:34:00;;;;;;;7.83;3.50;;;;;;;9.49;100.00;100744.45;1695059;84;21935;-67
2022/09/10 23:36:32;;;;;;;9.00;4.00;;;;;;;9.55;100.00;100745.59;1694288;84;21578;-59
2022/09/10 23:39:00;;;;;;;10.73;3.60;;;;;;;9.60;100.00;100744.61;1694424;84;21377;-58
2022/09/10 23:41:28;;;;;;;8.37;4.33;;;;;;;9.65;100.00;100732.70;1695249;84;21440;-56
2022/09/10 23:43:56;;;;;;;11.90;3.40;;;;;;;9.75;100.00;100742.46;1694467;84;21268;-56
2022/09/10 23:46:24;;;;;;;7.80;3.73;;;;;;;9.83;100.00;100742.94;1694528;84;21367;-58
2022/09/10 23:48:51;;;;;;;9.50;3.10;;;;;;;9.89;100.00;100738.37;1695083;84;21322;-57
2022/09/10 23:51:19;;;;;;;8.77;3.57;;;;;;;9.93;100.00;100738.86;1695269;84;21678;-56
2022/09/10 23:53:47;;;;;;;5.83;3.10;;;;;;;9.94;100.00;100737.38;1695257;84;21203;-66
2022/09/10 23:56:17;;;;;;;7.53;3.00;;;;;;;9.94;100.00;100726.95;1695047;84;21731;-56
2022/09/10 23:58:44;;;;;;;5.30;2.43;;;;;;;9.96;100.00;100735.43;1695109;84;21351;-56
